sensor_id;sensor_type;location;lat;lon;timestamp;temperature;humidity
18141;DHT22;9196;49.194;12.526;2022-07-23T00:02:23;21.70;99.40
18141;DHT22;9196;49.194;12.526;2022-07-23T00:04:49;21.70;99.40
18141;DHT22;9196;49.194;12.526;2022-07-23T00:07:16;21.70;99.40
18141;DHT22;9196;49.194;12.526;2022-07-23T00:09:43;21.60;97.60
18141;DHT22;9196;49.194;12.526;2022-07-23T00:12:10;21.50;97.70
18141;DHT22;9196;49.194;12.526;2022-07-23T00:14:38;21.50;97.90
18141;DHT22;9196;49.194;12.526;2022-07-23T00:17:04;21.40;98.00
18141;DHT22;9196;49.194;12.526;2022-07-23T00:19:31;21.40;98.00
18141;DHT22;9196;49.194;12.526;2022-07-23T00:21:58;21.40;98.00
18141;DHT22;9196;49.194;12.526;2022-07-23T00:24:25;21.30;97.90
18141;DHT22;9196;49.194;12.526;2022-07-23T00:26:52;21.30;98.00
18141;DHT22;9196;49.194;12.526;2022-07-23T00:29:18;21.20;97.80
18141;DHT22;9196;49.194;12.526;2022-07-23T00:31:47;21.10;97.90
18141;DHT22;9196;49.194;12.526;2022-07-23T00:34:13;21.10;97.70
18141;DHT22;9196;49.194;12.526;2022-07-23T00:36:40;21.10;97.80
18141;DHT22;9196;49.194;12.526;2022-07-23T00:39:07;21.20;97.80
18141;DHT22;9196;49.194;12.526;2022-07-23T00:41:34;21.30;97.90
18141;DHT22;9196;49.194;12.526;2022-07-23T00:44:14;21.40;97.50
18141;DHT22;9196;49.194;12.526;2022-07-23T00:46:46;21.40;97.50
18141;DHT22;9196;49.194;12.526;2022-07-23T00:49:13;21.40;97.50
18141;DHT22;9196;49.194;12.526;2022-07-23T00:51:40;21.50;97.50
18141;DHT22;9196;49.194;12.526;2022-07-23T00:54:07;21.50;97.50
18141;DHT22;9196;49.194;12.526;2022-07-23T00:56:34;21.50;97.40
18141;DHT22;9196;49.194;12.526;2022-07-23T00:59:01;21.60;97.40
18141;DHT22;9196;49.194;12.526;2022-07-23T01:01:28;21.40;97.70
18141;DHT22;9196;49.194;12.526;2022-07-23T01:03:56;21.40;97.70
18141;DHT22;9196;49.194;12.526;2022-07-23T01:06:23;21.30;97.80
18141;DHT22;9196;49.194;12.526;2022-07-23T01:08:50;21.30;98.00
18141;DHT22;9196;49.194;12.526;2022-07-23T01:11:18;21.30;98.40
18141;DHT22;9196;49.194;12.526;2022-07-23T01:13:45;21.30;98.80
18141;DHT22;9196;49.194;12.526;2022-07-23T01:16:12;21.30;98.80
18141;DHT22;9196;49.194;12.526;2022-07-23T01:18:39;21.20;98.90
18141;DHT22;9196;49.194;12.526;2022-07-23T01:21:08;21.20;99.20
18141;DHT22;9196;49.194;12.526;2022-07-23T01:23:39;21.20;99.40
18141;DHT22;9196;49.194;12.526;2022-07-23T01:26:06;21.30;99.70
18141;DHT22;9196;49.194;12.526;2022-07-23T01:28:33;21.30;99.90
18141;DHT22;9196;49.194;12.526;2022-07-23T01:31:00;21.20;99.90
18141;DHT22;9196;49.194;12.526;2022-07-23T01:33:27;21.20;99.90
18141;DHT22;9196;49.194;12.526;2022-07-23T01:35:54;21.10;99.90
18141;DHT22;9196;49.194;12.526;2022-07-23T01:38:20;21.10;99.90
18141;DHT22;9196;49.194;12.526;2022-07-23T01:40:48;21.10;99.90
18141;DHT22;9196;49.194;12.526;2022-07-23T01:43:15;21.10;99.90
18141;DHT22;9196;49.194;12.526;2022-07-23T01:45:42;21.10;99.90
18141;DHT22;9196;49.194;12.526;2022-07-23T01:48:09;21.10;99.90
18141;DHT22;9196;49.194;12.526;2022-07-23T01:50:36;21.10;99.90
18141;DHT22;9196;49.194;12.526;2022-07-23T01:53:03;21.20;99.90
18141;DHT22;9196;49.194;12.526;2022-07-23T01:55:30;21.20;99.90
18141;DHT22;9196;49.194;12.526;2022-07-23T01:57:58;21.30;99.80
18141;DHT22;9196;49.194;12.526;2022-07-23T02:00:24;21.30;99.70
18141;DHT22;9196;49.194;12.526;2022-07-23T02:02:51;21.30;99.80
18141;DHT22;9196;49.194;12.526;2022-07-23T02:05:18;21.30;99.60
18141;DHT22;9196;49.194;12.526;2022-07-23T02:07:45;21.40;99.50
18141;DHT22;9196;49.194;12.526;2022-07-23T02:10:12;21.40;99.40
18141;DHT22;9196;49.194;12.526;2022-07-23T02:12:38;21.50;99.30
18141;DHT22;9196;49.194;12.526;2022-07-23T02:15:07;21.50;99.10
18141;DHT22;9196;49.194;12.526;2022-07-23T02:17:34;21.50;98.90
18141;DHT22;9196;49.194;12.526;2022-07-23T02:20:01;21.60;98.90
18141;DHT22;9196;49.194;12.526;2022-07-23T02:22:28;21.60;98.90
18141;DHT22;9196;49.194;12.526;2022-07-23T02:24:54;21.60;98.80
18141;DHT22;9196;49.194;12.526;2022-07-23T02:27:21;21.50;98.80
18141;DHT22;9196;49.194;12.526;2022-07-23T02:29:48;21.50;98.70
18141;DHT22;9196;49.194;12.526;2022-07-23T02:32:16;21.50;98.70
18141;DHT22;9196;49.194;12.526;2022-07-23T02:34:43;21.40;98.90
18141;DHT22;9196;49.194;12.526;2022-07-23T02:37:10;21.30;99.00
18141;DHT22;9196;49.194;12.526;2022-07-23T02:39:37;21.20;99.20
18141;DHT22;9196;49.194;12.526;2022-07-23T02:42:04;21.10;99.50
18141;DHT22;9196;49.194;12.526;2022-07-23T02:44:31;21.10;99.80
18141;DHT22;9196;49.194;12.526;2022-07-23T02:46:57;21.00;99.90
18141;DHT22;9196;49.194;12.526;2022-07-23T02:49:25;21.00;99.60
18141;DHT22;9196;49.194;12.526;2022-07-23T02:51:52;21.00;99.60
18141;DHT22;9196;49.194;12.526;2022-07-23T02:54:19;21.20;99.60
18141;DHT22;9196;49.194;12.526;2022-07-23T02:56:46;21.40;99.90
18141;DHT22;9196;49.194;12.526;2022-07-23T02:59:13;21.60;99.90
18141;DHT22;9196;49.194;12.526;2022-07-23T03:01:40;21.80;99.90
18141;DHT22;9196;49.194;12.526;2022-07-23T03:04:06;21.80;99.90
18141;DHT22;9196;49.194;12.526;2022-07-23T03:06:34;21.80;99.90
18141;DHT22;9196;49.194;12.526;2022-07-23T03:09:01;21.80;99.90
18141;DHT22;9196;49.194;12.526;2022-07-23T03:11:28;21.80;99.90
18141;DHT22;9196;49.194;12.526;2022-07-23T03:13:55;21.80;99.90
18141;DHT22;9196;49.194;12.526;2022-07-23T03:16:22;21.80;99.90
18141;DHT22;9196;49.194;12.526;2022-07-23T03:18:49;21.80;99.90
18141;DHT22;9196;49.194;12.526;2022-07-23T03:21:15;21.80;99.90
18141;DHT22;9196;49.194;12.526;2022-07-23T03:23:43;21.90;99.90
18141;DHT22;9196;49.194;12.526;2022-07-23T03:26:10;21.90;99.90
18141;DHT22;9196;49.194;12.526;2022-07-23T03:28:37;21.90;99.80
18141;DHT22;9196;49.194;12.526;2022-07-23T03:31:04;22.00;99.90
18141;DHT22;9196;49.194;12.526;2022-07-23T03:33:30;22.00;99.90
18141;DHT22;9196;49.194;12.526;2022-07-23T03:35:57;22.00;99.80
18141;DHT22;9196;49.194;12.526;2022-07-23T03:38:24;22.00;99.20
18141;DHT22;9196;49.194;12.526;2022-07-23T03:40:52;22.00;99.30
18141;DHT22;9196;49.194;12.526;2022-07-23T03:43:19;21.90;99.20
18141;DHT22;9196;49.194;12.526;2022-07-23T03:45:45;22.00;99.30
18141;DHT22;9196;49.194;12.526;2022-07-23T03:48:12;21.80;99.90
18141;DHT22;9196;49.194;12.526;2022-07-23T03:50:39;21.70;99.90
18141;DHT22;9196;49.194;12.526;2022-07-23T03:53:06;21.60;99.90
18141;DHT22;9196;49.194;12.526;2022-07-23T03:55:33;21.40;99.90
18141;DHT22;9196;49.194;12.526;2022-07-23T03:58:01;21.40;99.90
18141;DHT22;9196;49.194;12.526;2022-07-23T04:00:28;21.20;99.90
18141;DHT22;9196;49.194;12.526;2022-07-23T04:02:55;21.20;99.90
18141;DHT22;9196;49.194;12.526;2022-07-23T04:05:22;21.20;99.90
18141;DHT22;9196;49.194;12.526;2022-07-23T04:07:48;21.20;99.90
18141;DHT22;9196;49.194;12.526;2022-07-23T04:10:15;21.10;99.90
18141;DHT22;9196;49.194;12.526;2022-07-23T04:12:42;21.00;99.90
18141;DHT22;9196;49.194;12.526;2022-07-23T04:15:10;21.00;99.90
18141;DHT22;9196;49.194;12.526;2022-07-23T04:17:37;21.00;99.90
18141;DHT22;9196;49.194;12.526;2022-07-23T04:20:05;20.80;99.90
18141;DHT22;9196;49.194;12.526;2022-07-23T04:22:32;20.80;99.90
18141;DHT22;9196;49.194;12.526;2022-07-23T04:24:58;20.80;99.90
18141;DHT22;9196;49.194;12.526;2022-07-23T04:27:25;20.80;99.90
18141;DHT22;9196;49.194;12.526;2022-07-23T04:29:52;20.90;99.90
18141;DHT22;9196;49.194;12.526;2022-07-23T04:32:20;21.00;99.90
18141;DHT22;9196;49.194;12.526;2022-07-23T04:34:47;21.00;99.90
18141;DHT22;9196;49.194;12.526;2022-07-23T04:37:14;21.00;99.90
18141;DHT22;9196;49.194;12.526;2022-07-23T04:39:40;21.00;99.90
18141;DHT22;9196;49.194;12.526;2022-07-23T04:42:07;20.90;99.90
18141;DHT22;9196;49.194;12.526;2022-07-23T04:44:34;20.70;99.90
18141;DHT22;9196;49.194;12.526;2022-07-23T04:47:01;20.60;99.90
18141;DHT22;9196;49.194;12.526;2022-07-23T04:49:29;20.40;99.90
18141;DHT22;9196;49.194;12.526;2022-07-23T04:51:55;20.20;99.90
18141;DHT22;9196;49.194;12.526;2022-07-23T04:54:22;20.20;99.90
18141;DHT22;9196;49.194;12.526;2022-07-23T04:56:49;20.30;99.90
18141;DHT22;9196;49.194;12.526;2022-07-23T04:59:16;20.30;99.90
18141;DHT22;9196;49.194;12.526;2022-07-23T05:01:42;20.50;99.90
18141;DHT22;9196;49.194;12.526;2022-07-23T05:04:09;20.70;99.90
18141;DHT22;9196;49.194;12.526;2022-07-23T05:06:37;20.70;99.90
18141;DHT22;9196;49.194;12.526;2022-07-23T05:09:04;20.60;99.90
18141;DHT22;9196;49.194;12.526;2022-07-23T05:11:31;20.60;99.90
18141;DHT22;9196;49.194;12.526;2022-07-23T05:13:58;20.60;99.90
18141;DHT22;9196;49.194;12.526;2022-07-23T05:16:24;20.60;99.90
18141;DHT22;9196;49.194;12.526;2022-07-23T05:18:51;20.60;99.90
18141;DHT22;9196;49.194;12.526;2022-07-23T05:21:19;20.70;99.90
18141;DHT22;9196;49.194;12.526;2022-07-23T05:23:47;20.80;99.90
18141;DHT22;9196;49.194;12.526;2022-07-23T05:26:14;20.90;99.90
18141;DHT22;9196;49.194;12.526;2022-07-23T05:28:41;20.90;99.90
18141;DHT22;9196;49.194;12.526;2022-07-23T05:31:08;21.10;99.90
18141;DHT22;9196;49.194;12.526;2022-07-23T05:33:34;21.00;99.90
18141;DHT22;9196;49.194;12.526;2022-07-23T05:36:01;20.90;99.90
18141;DHT22;9196;49.194;12.526;2022-07-23T05:38:29;21.00;99.90
18141;DHT22;9196;49.194;12.526;2022-07-23T05:40:57;21.10;99.90
18141;DHT22;9196;49.194;12.526;2022-07-23T05:43:24;21.10;99.90
18141;DHT22;9196;49.194;12.526;2022-07-23T05:45:51;21.20;99.90
18141;DHT22;9196;49.194;12.526;2022-07-23T05:48:17;21.10;99.90
18141;DHT22;9196;49.194;12.526;2022-07-23T05:50:44;21.10;99.90
18141;DHT22;9196;49.194;12.526;2022-07-23T05:53:11;21.00;99.90
18141;DHT22;9196;49.194;12.526;2022-07-23T05:55:38;21.00;99.90
18141;DHT22;9196;49.194;12.526;2022-07-23T05:58:06;21.00;99.90
18141;DHT22;9196;49.194;12.526;2022-07-23T06:00:34;21.10;99.90
18141;DHT22;9196;49.194;12.526;2022-07-23T06:03:01;21.20;99.90
18141;DHT22;9196;49.194;12.526;2022-07-23T06:05:28;21.30;99.90
18141;DHT22;9196;49.194;12.526;2022-07-23T06:07:54;21.40;99.90
18141;DHT22;9196;49.194;12.526;2022-07-23T06:10:21;21.40;99.90
18141;DHT22;9196;49.194;12.526;2022-07-23T06:12:48;21.40;99.90
18141;DHT22;9196;49.194;12.526;2022-07-23T06:15:16;21.50;99.90
18141;DHT22;9196;49.194;12.526;2022-07-23T06:17:43;21.60;99.90
18141;DHT22;9196;49.194;12.526;2022-07-23T06:20:10;21.70;99.90
18141;DHT22;9196;49.194;12.526;2022-07-23T06:22:37;21.70;99.90
18141;DHT22;9196;49.194;12.526;2022-07-23T06:25:05;21.80;99.90
18141;DHT22;9196;49.194;12.526;2022-07-23T06:27:32;21.90;99.90
18141;DHT22;9196;49.194;12.526;2022-07-23T06:29:59;21.90;99.90
18141;DHT22;9196;49.194;12.526;2022-07-23T06:32:27;21.90;99.90
18141;DHT22;9196;49.194;12.526;2022-07-23T06:34:53;21.90;99.90
18141;DHT22;9196;49.194;12.526;2022-07-23T06:37:20;21.80;99.90
18141;DHT22;9196;49.194;12.526;2022-07-23T06:39:47;21.80;99.90
18141;DHT22;9196;49.194;12.526;2022-07-23T06:42:14;21.90;99.90
18141;DHT22;9196;49.194;12.526;2022-07-23T06:44:40;21.90;99.90
18141;DHT22;9196;49.194;12.526;2022-07-23T06:47:07;22.00;99.90
18141;DHT22;9196;49.194;12.526;2022-07-23T06:49:35;22.00;99.90
18141;DHT22;9196;49.194;12.526;2022-07-23T06:52:02;22.10;99.90
18141;DHT22;9196;49.194;12.526;2022-07-23T06:54:29;22.20;99.90
18141;DHT22;9196;49.194;12.526;2022-07-23T06:56:56;22.40;99.90
18141;DHT22;9196;49.194;12.526;2022-07-23T06:59:23;22.50;99.90
18141;DHT22;9196;49.194;12.526;2022-07-23T07:01:50;22.50;99.90
18141;DHT22;9196;49.194;12.526;2022-07-23T07:04:16;22.60;99.90
18141;DHT22;9196;49.194;12.526;2022-07-23T07:06:44;22.70;99.90
18141;DHT22;9196;49.194;12.526;2022-07-23T07:09:11;22.60;99.90
18141;DHT22;9196;49.194;12.526;2022-07-23T07:11:38;22.70;99.90
18141;DHT22;9196;49.194;12.526;2022-07-23T07:14:05;22.70;99.90
18141;DHT22;9196;49.194;12.526;2022-07-23T07:16:32;22.80;99.90
18141;DHT22;9196;49.194;12.526;2022-07-23T07:18:59;23.00;99.90
18141;DHT22;9196;49.194;12.526;2022-07-23T07:21:26;23.00;99.90
18141;DHT22;9196;49.194;12.526;2022-07-23T07:23:54;23.00;99.90
18141;DHT22;9196;49.194;12.526;2022-07-23T07:26:20;23.10;99.90
18141;DHT22;9196;49.194;12.526;2022-07-23T07:28:47;23.10;99.90
18141;DHT22;9196;49.194;12.526;2022-07-23T07:31:14;23.30;99.90
18141;DHT22;9196;49.194;12.526;2022-07-23T07:33:42;23.40;99.80
18141;DHT22;9196;49.194;12.526;2022-07-23T07:36:09;23.30;99.80
18141;DHT22;9196;49.194;12.526;2022-07-23T07:38:35;23.30;99.80
18141;DHT22;9196;49.194;12.526;2022-07-23T07:41:04;23.20;99.90
18141;DHT22;9196;49.194;12.526;2022-07-23T07:43:30;23.10;99.90
18141;DHT22;9196;49.194;12.526;2022-07-23T07:45:57;23.10;99.90
18141;DHT22;9196;49.194;12.526;2022-07-23T07:48:24;23.10;99.90
18141;DHT22;9196;49.194;12.526;2022-07-23T07:50:51;23.10;99.90
18141;DHT22;9196;49.194;12.526;2022-07-23T07:53:18;23.00;99.90
18141;DHT22;9196;49.194;12.526;2022-07-23T07:55:45;23.00;99.90
18141;DHT22;9196;49.194;12.526;2022-07-23T07:58:13;23.10;99.90
18141;DHT22;9196;49.194;12.526;2022-07-23T08:00:40;23.20;99.90
18141;DHT22;9196;49.194;12.526;2022-07-23T08:03:06;23.20;99.90
18141;DHT22;9196;49.194;12.526;2022-07-23T08:05:33;23.10;99.90
18141;DHT22;9196;49.194;12.526;2022-07-23T08:08:00;23.20;99.90
18141;DHT22;9196;49.194;12.526;2022-07-23T08:10:28;23.20;99.90
18141;DHT22;9196;49.194;12.526;2022-07-23T08:12:57;23.30;99.90
18141;DHT22;9196;49.194;12.526;2022-07-23T08:15:28;23.40;99.90
18141;DHT22;9196;49.194;12.526;2022-07-23T08:17:55;23.50;99.90
18141;DHT22;9196;49.194;12.526;2022-07-23T08:20:23;23.70;99.80
18141;DHT22;9196;49.194;12.526;2022-07-23T08:22:51;23.80;99.60
18141;DHT22;9196;49.194;12.526;2022-07-23T08:25:21;23.90;99.40
18141;DHT22;9196;49.194;12.526;2022-07-23T08:27:48;23.90;98.90
18141;DHT22;9196;49.194;12.526;2022-07-23T08:30:16;24.10;98.90
18141;DHT22;9196;49.194;12.526;2022-07-23T08:32:56;24.20;98.30
18141;DHT22;9196;49.194;12.526;2022-07-23T08:35:25;24.30;98.00
18141;DHT22;9196;49.194;12.526;2022-07-23T08:37:52;24.60;98.30
18141;DHT22;9196;49.194;12.526;2022-07-23T08:40:19;24.70;97.70
18141;DHT22;9196;49.194;12.526;2022-07-23T08:42:48;24.80;98.10
18141;DHT22;9196;49.194;12.526;2022-07-23T08:45:16;24.70;96.70
18141;DHT22;9196;49.194;12.526;2022-07-23T08:47:44;24.80;96.90
18141;DHT22;9196;49.194;12.526;2022-07-23T08:50:13;24.90;96.80
18141;DHT22;9196;49.194;12.526;2022-07-23T08:52:40;25.00;96.60
18141;DHT22;9196;49.194;12.526;2022-07-23T08:55:08;25.10;96.40
18141;DHT22;9196;49.194;12.526;2022-07-23T08:57:34;25.20;96.20
18141;DHT22;9196;49.194;12.526;2022-07-23T09:00:02;25.30;95.50
18141;DHT22;9196;49.194;12.526;2022-07-23T09:02:29;25.40;95.40
18141;DHT22;9196;49.194;12.526;2022-07-23T09:04:56;25.40;95.20
18141;DHT22;9196;49.194;12.526;2022-07-23T09:07:24;25.50;94.80
18141;DHT22;9196;49.194;12.526;2022-07-23T09:10:05;25.50;94.70
18141;DHT22;9196;49.194;12.526;2022-07-23T09:12:32;25.70;94.70
18141;DHT22;9196;49.194;12.526;2022-07-23T09:15:04;25.80;94.80
18141;DHT22;9196;49.194;12.526;2022-07-23T09:17:37;26.10;94.00
18141;DHT22;9196;49.194;12.526;2022-07-23T09:20:08;26.30;94.40
18141;DHT22;9196;49.194;12.526;2022-07-23T09:22:37;26.40;93.20
18141;DHT22;9196;49.194;12.526;2022-07-23T09:25:07;26.40;93.40
18141;DHT22;9196;49.194;12.526;2022-07-23T09:27:53;26.30;93.30
18141;DHT22;9196;49.194;12.526;2022-07-23T09:30:20;26.30;93.80
18141;DHT22;9196;49.194;12.526;2022-07-23T09:33:08;26.30;94.50
18141;DHT22;9196;49.194;12.526;2022-07-23T09:35:46;26.40;93.70
18141;DHT22;9196;49.194;12.526;2022-07-23T09:38:14;26.50;94.00
18141;DHT22;9196;49.194;12.526;2022-07-23T09:40:41;26.60;93.60
18141;DHT22;9196;49.194;12.526;2022-07-23T09:43:09;26.60;93.30
18141;DHT22;9196;49.194;12.526;2022-07-23T09:45:36;26.70;92.90
18141;DHT22;9196;49.194;12.526;2022-07-23T09:48:11;26.70;93.00
18141;DHT22;9196;49.194;12.526;2022-07-23T09:50:40;26.70;93.20
18141;DHT22;9196;49.194;12.526;2022-07-23T09:53:07;26.70;91.60
18141;DHT22;9196;49.194;12.526;2022-07-23T09:55:36;26.70;92.10
18141;DHT22;9196;49.194;12.526;2022-07-23T09:58:05;26.70;92.90
18141;DHT22;9196;49.194;12.526;2022-07-23T10:00:33;26.80;92.00
18141;DHT22;9196;49.194;12.526;2022-07-23T10:03:01;26.80;92.20
18141;DHT22;9196;49.194;12.526;2022-07-23T10:05:28;26.90;91.70
18141;DHT22;9196;49.194;12.526;2022-07-23T10:07:55;26.90;92.20
18141;DHT22;9196;49.194;12.526;2022-07-23T10:10:22;26.80;92.10
18141;DHT22;9196;49.194;12.526;2022-07-23T10:12:53;26.70;92.10
18141;DHT22;9196;49.194;12.526;2022-07-23T10:15:40;26.60;91.80
18141;DHT22;9196;49.194;12.526;2022-07-23T10:18:07;26.50;92.00
18141;DHT22;9196;49.194;12.526;2022-07-23T10:20:33;26.60;91.80
18141;DHT22;9196;49.194;12.526;2022-07-23T10:23:07;26.70;92.00
18141;DHT22;9196;49.194;12.526;2022-07-23T10:25:40;26.70;92.20
18141;DHT22;9196;49.194;12.526;2022-07-23T10:28:22;26.70;92.60
18141;DHT22;9196;49.194;12.526;2022-07-23T10:31:01;27.00;93.40
18141;DHT22;9196;49.194;12.526;2022-07-23T10:33:38;27.20;92.90
18141;DHT22;9196;49.194;12.526;2022-07-23T10:36:12;27.40;92.60
18141;DHT22;9196;49.194;12.526;2022-07-23T10:38:48;27.50;93.20
18141;DHT22;9196;49.194;12.526;2022-07-23T10:41:31;27.40;92.20
18141;DHT22;9196;49.194;12.526;2022-07-23T10:44:10;27.30;92.70
18141;DHT22;9196;49.194;12.526;2022-07-23T10:46:53;27.40;92.50
18141;DHT22;9196;49.194;12.526;2022-07-23T10:49:24;27.30;92.00
18141;DHT22;9196;49.194;12.526;2022-07-23T10:52:22;27.30;91.30
18141;DHT22;9196;49.194;12.526;2022-07-23T10:54:50;27.50;90.90
18141;DHT22;9196;49.194;12.526;2022-07-23T10:57:19;27.70;90.70
18141;DHT22;9196;49.194;12.526;2022-07-23T11:00:17;27.90;89.50
18141;DHT22;9196;49.194;12.526;2022-07-23T11:02:49;28.00;88.10
18141;DHT22;9196;49.194;12.526;2022-07-23T11:05:18;28.20;88.30
18141;DHT22;9196;49.194;12.526;2022-07-23T11:08:17;28.40;87.50
18141;DHT22;9196;49.194;12.526;2022-07-23T11:10:47;28.70;88.70
18141;DHT22;9196;49.194;12.526;2022-07-23T11:13:35;28.90;86.80
18141;DHT22;9196;49.194;12.526;2022-07-23T11:16:12;29.00;85.20
18141;DHT22;9196;49.194;12.526;2022-07-23T11:18:55;29.20;84.40
18141;DHT22;9196;49.194;12.526;2022-07-23T11:21:45;29.10;86.10
18141;DHT22;9196;49.194;12.526;2022-07-23T11:24:13;29.30;84.60
18141;DHT22;9196;49.194;12.526;2022-07-23T11:26:43;29.70;82.40
18141;DHT22;9196;49.194;12.526;2022-07-23T11:32:34;29.30;80.40
18141;DHT22;9196;49.194;12.526;2022-07-23T11:35:22;29.00;82.00
18141;DHT22;9196;49.194;12.526;2022-07-23T11:37:49;28.60;80.00
18141;DHT22;9196;49.194;12.526;2022-07-23T11:40:19;28.10;80.80
18141;DHT22;9196;49.194;12.526;2022-07-23T11:42:53;27.80;82.20
18141;DHT22;9196;49.194;12.526;2022-07-23T11:45:21;27.60;84.00
18141;DHT22;9196;49.194;12.526;2022-07-23T11:47:49;27.40;87.20
18141;DHT22;9196;49.194;12.526;2022-07-23T11:50:16;27.10;86.90
18141;DHT22;9196;49.194;12.526;2022-07-23T11:52:43;26.90;86.30
18141;DHT22;9196;49.194;12.526;2022-07-23T11:55:10;26.80;86.60
18141;DHT22;9196;49.194;12.526;2022-07-23T11:57:39;26.70;86.30
18141;DHT22;9196;49.194;12.526;2022-07-23T12:00:08;26.60;86.60
18141;DHT22;9196;49.194;12.526;2022-07-23T12:02:36;26.50;87.50
18141;DHT22;9196;49.194;12.526;2022-07-23T12:05:05;26.50;87.20
18141;DHT22;9196;49.194;12.526;2022-07-23T12:07:33;26.50;89.30
18141;DHT22;9196;49.194;12.526;2022-07-23T12:10:03;26.50;91.90
18141;DHT22;9196;49.194;12.526;2022-07-23T12:12:36;26.50;91.70
18141;DHT22;9196;49.194;12.526;2022-07-23T12:15:04;26.60;91.90
18141;DHT22;9196;49.194;12.526;2022-07-23T12:17:33;26.80;93.30
18141;DHT22;9196;49.194;12.526;2022-07-23T12:20:02;27.10;91.30
18141;DHT22;9196;49.194;12.526;2022-07-23T12:22:36;27.50;90.90
18141;DHT22;9196;49.194;12.526;2022-07-23T12:25:06;27.70;85.70
18141;DHT22;9196;49.194;12.526;2022-07-23T12:27:34;27.70;81.00
18141;DHT22;9196;49.194;12.526;2022-07-23T12:30:19;27.80;80.10
18141;DHT22;9196;49.194;12.526;2022-07-23T12:32:48;27.90;80.20
18141;DHT22;9196;49.194;12.526;2022-07-23T12:35:17;28.10;80.10
18141;DHT22;9196;49.194;12.526;2022-07-23T12:37:47;28.50;79.50
18141;DHT22;9196;49.194;12.526;2022-07-23T12:40:23;28.70;78.80
18141;DHT22;9196;49.194;12.526;2022-07-23T12:42:51;28.90;77.40
18141;DHT22;9196;49.194;12.526;2022-07-23T12:45:19;29.10;76.60
18141;DHT22;9196;49.194;12.526;2022-07-23T12:47:58;29.20;75.10
18141;DHT22;9196;49.194;12.526;2022-07-23T12:50:53;29.30;73.80
18141;DHT22;9196;49.194;12.526;2022-07-23T12:53:24;29.30;71.90
18141;DHT22;9196;49.194;12.526;2022-07-23T12:55:58;29.50;73.60
18141;DHT22;9196;49.194;12.526;2022-07-23T12:58:25;29.70;71.30
18141;DHT22;9196;49.194;12.526;2022-07-23T13:01:01;29.80;70.70
18141;DHT22;9196;49.194;12.526;2022-07-23T13:03:34;29.80;68.20
18141;DHT22;9196;49.194;12.526;2022-07-23T13:06:01;29.70;67.10
18141;DHT22;9196;49.194;12.526;2022-07-23T13:08:32;29.70;69.40
18141;DHT22;9196;49.194;12.526;2022-07-23T13:10:59;29.70;66.90
18141;DHT22;9196;49.194;12.526;2022-07-23T13:13:27;29.70;68.10
18141;DHT22;9196;49.194;12.526;2022-07-23T13:15:55;30.00;71.50
18141;DHT22;9196;49.194;12.526;2022-07-23T13:18:22;30.20;69.40
18141;DHT22;9196;49.194;12.526;2022-07-23T13:20:49;30.30;67.10
18141;DHT22;9196;49.194;12.526;2022-07-23T13:23:17;30.20;69.60
18141;DHT22;9196;49.194;12.526;2022-07-23T13:25:46;30.20;66.50
18141;DHT22;9196;49.194;12.526;2022-07-23T13:28:13;30.30;65.70
18141;DHT22;9196;49.194;12.526;2022-07-23T13:30:41;30.10;65.30
18141;DHT22;9196;49.194;12.526;2022-07-23T13:33:08;30.20;65.10
18141;DHT22;9196;49.194;12.526;2022-07-23T13:35:37;30.10;66.10
18141;DHT22;9196;49.194;12.526;2022-07-23T13:38:05;30.50;68.00
18141;DHT22;9196;49.194;12.526;2022-07-23T13:40:33;30.90;65.10
18141;DHT22;9196;49.194;12.526;2022-07-23T13:43:02;31.10;65.40
18141;DHT22;9196;49.194;12.526;2022-07-23T13:45:28;31.40;65.10
18141;DHT22;9196;49.194;12.526;2022-07-23T13:47:55;31.40;63.90
18141;DHT22;9196;49.194;12.526;2022-07-23T13:50:22;31.50;66.30
18141;DHT22;9196;49.194;12.526;2022-07-23T13:52:49;31.50;66.10
18141;DHT22;9196;49.194;12.526;2022-07-23T13:55:16;31.50;66.80
18141;DHT22;9196;49.194;12.526;2022-07-23T13:57:43;31.50;64.30
18141;DHT22;9196;49.194;12.526;2022-07-23T14:00:12;31.20;63.80
18141;DHT22;9196;49.194;12.526;2022-07-23T14:02:40;31.00;62.90
18141;DHT22;9196;49.194;12.526;2022-07-23T14:05:08;31.00;63.10
18141;DHT22;9196;49.194;12.526;2022-07-23T14:07:36;30.90;62.90
18141;DHT22;9196;49.194;12.526;2022-07-23T14:10:04;30.60;63.10
18141;DHT22;9196;49.194;12.526;2022-07-23T14:12:31;30.30;63.20
18141;DHT22;9196;49.194;12.526;2022-07-23T14:14:58;30.10;64.60
18141;DHT22;9196;49.194;12.526;2022-07-23T14:17:26;29.90;65.00
18141;DHT22;9196;49.194;12.526;2022-07-23T14:19:53;29.80;64.90
18141;DHT22;9196;49.194;12.526;2022-07-23T14:22:20;29.70;64.60
18141;DHT22;9196;49.194;12.526;2022-07-23T14:24:46;29.60;64.20
18141;DHT22;9196;49.194;12.526;2022-07-23T14:27:13;29.60;65.20
18141;DHT22;9196;49.194;12.526;2022-07-23T14:29:40;29.60;66.50
18141;DHT22;9196;49.194;12.526;2022-07-23T14:32:07;29.70;65.40
18141;DHT22;9196;49.194;12.526;2022-07-23T14:34:35;29.70;65.30
18141;DHT22;9196;49.194;12.526;2022-07-23T14:37:02;29.40;65.00
18141;DHT22;9196;49.194;12.526;2022-07-23T14:39:29;29.40;64.60
18141;DHT22;9196;49.194;12.526;2022-07-23T14:41:56;29.50;67.10
18141;DHT22;9196;49.194;12.526;2022-07-23T14:44:23;29.80;68.10
18141;DHT22;9196;49.194;12.526;2022-07-23T14:46:50;30.00;66.80
18141;DHT22;9196;49.194;12.526;2022-07-23T14:49:16;30.20;64.60
18141;DHT22;9196;49.194;12.526;2022-07-23T14:51:45;30.20;66.50
18141;DHT22;9196;49.194;12.526;2022-07-23T14:54:12;30.30;65.80
18141;DHT22;9196;49.194;12.526;2022-07-23T14:56:39;30.40;64.80
18141;DHT22;9196;49.194;12.526;2022-07-23T14:59:10;30.40;65.50
18141;DHT22;9196;49.194;12.526;2022-07-23T15:01:37;30.40;66.50
18141;DHT22;9196;49.194;12.526;2022-07-23T15:04:05;30.50;66.30
18141;DHT22;9196;49.194;12.526;2022-07-23T15:06:32;30.50;65.40
18141;DHT22;9196;49.194;12.526;2022-07-23T15:09:00;30.50;65.90
18141;DHT22;9196;49.194;12.526;2022-07-23T15:11:27;30.60;65.10
18141;DHT22;9196;49.194;12.526;2022-07-23T15:13:57;30.50;65.70
18141;DHT22;9196;49.194;12.526;2022-07-23T15:16:24;30.40;67.00
18141;DHT22;9196;49.194;12.526;2022-07-23T15:18:52;30.20;64.80
18141;DHT22;9196;49.194;12.526;2022-07-23T15:21:23;30.00;65.30
18141;DHT22;9196;49.194;12.526;2022-07-23T15:23:53;29.80;66.30
18141;DHT22;9196;49.194;12.526;2022-07-23T15:26:22;29.70;66.70
18141;DHT22;9196;49.194;12.526;2022-07-23T15:28:48;29.50;67.00
18141;DHT22;9196;49.194;12.526;2022-07-23T15:31:16;29.30;67.10
18141;DHT22;9196;49.194;12.526;2022-07-23T15:33:43;29.00;67.90
18141;DHT22;9196;49.194;12.526;2022-07-23T15:36:14;28.70;68.70
18141;DHT22;9196;49.194;12.526;2022-07-23T15:38:43;28.60;69.40
18141;DHT22;9196;49.194;12.526;2022-07-23T15:41:10;28.70;70.00
18141;DHT22;9196;49.194;12.526;2022-07-23T15:43:38;28.60;69.70